Time;durP1;ratioP1;P1;durP2;ratioP2;P2;SDS_P1;SDS_P2;PMS_P1;PMS_P2;Temp;Humidity;BMP_temperature;BMP_pressure;BME280_temperature;BME280_humidity;BME280_pressure;Samples;Min_cycle;Max_cycle;Signal;HPM_P1;HPM_P2
2022/09/06 00:00:36;;;;;;;10.25;7.20;;;18.60;99.90;;;;;;5037695;28;20100;-80
2022/09/06 00:03:02;;;;;;;13.13;7.82;;;18.60;99.90;;;;;;5019879;28;20079;-82
2022/09/06 00:05:29;;;;;;;12.07;7.57;;;18.70;99.90;;;;;;5037833;28;20033;-80
2022/09/06 00:07:58;;;;;;;12.07;8.00;;;18.70;99.90;;;;;;5018816;28;20033;-80
2022/09/06 00:10:25;;;;;;;10.40;8.02;;;18.60;99.90;;;;;;5036671;28;20021;-80
2022/09/06 00:12:51;;;;;;;13.02;7.70;;;18.60;99.90;;;;;;5037986;28;20029;-79
2022/09/06 00:15:17;;;;;;;13.00;8.23;;;18.50;99.90;;;;;;5038054;28;20389;-81
2022/09/06 00:17:45;;;;;;;11.55;7.90;;;18.40;99.90;;;;;;5049923;28;20029;-79
2022/09/06 00:20:11;;;;;;;13.15;8.68;;;18.40;99.90;;;;;;5056329;28;20021;-78
2022/09/06 00:22:37;;;;;;;10.93;7.70;;;18.40;99.90;;;;;;5048707;28;20045;-80
2022/09/06 00:25:05;;;;;;;17.33;8.68;;;18.40;99.90;;;;;;5038944;28;20029;-80
2022/09/06 00:27:31;;;;;;;11.32;8.70;;;18.30;99.90;;;;;;5022790;28;20033;-79
2022/09/06 00:29:57;;;;;;;11.80;8.07;;;18.30;99.90;;;;;;5031614;28;20017;-78
2022/09/06 00:32:23;;;;;;;12.50;8.68;;;18.30;99.90;;;;;;5034825;28;20026;-79
2022/09/06 00:34:49;;;;;;;12.75;9.20;;;18.30;99.90;;;;;;5046773;28;20037;-80
2022/09/06 00:37:15;;;;;;;12.68;9.20;;;18.30;99.90;;;;;;5038363;28;20079;-78
2022/09/06 00:39:40;;;;;;;14.07;9.13;;;18.40;99.90;;;;;;5036394;28;20555;-80
2022/09/06 00:42:11;;;;;;;12.32;8.50;;;18.40;99.90;;;;;;5037000;28;20088;-80
2022/09/06 00:44:38;;;;;;;14.60;9.10;;;18.40;99.90;;;;;;5020893;28;20033;-79
2022/09/06 00:47:05;;;;;;;16.08;9.00;;;18.40;99.90;;;;;;5023191;28;20026;-80
2022/09/06 00:49:37;;;;;;;13.73;9.18;;;18.40;99.90;;;;;;5041810;28;20092;-81
2022/09/06 00:52:07;;;;;;;17.40;9.38;;;18.40;99.90;;;;;;5023531;28;20382;-81
2022/09/06 00:54:33;;;;;;;10.98;8.63;;;18.40;99.90;;;;;;5037878;28;20539;-80
2022/09/06 00:56:59;;;;;;;11.98;8.52;;;18.40;99.90;;;;;;5039066;28;20033;-81
2022/09/06 00:59:28;;;;;;;13.40;8.05;;;18.40;99.90;;;;;;5039600;28;20021;-80
2022/09/06 01:01:56;;;;;;;16.65;9.05;;;18.40;99.90;;;;;;5023106;28;20033;-78
2022/09/06 01:04:22;;;;;;;11.30;8.52;;;18.40;99.90;;;;;;5040617;28;20075;-82
2022/09/06 01:07:04;;;;;;;10.90;8.30;;;18.40;99.90;;;;;;5020684;28;20033;-80
2022/09/06 01:09:59;;;;;;;13.07;8.60;;;18.30;99.90;;;;;;5019165;28;20026;-80
2022/09/06 01:12:43;;;;;;;16.30;8.70;;;18.30;99.90;;;;;;5043853;28;20425;-80
2022/09/06 01:15:34;;;;;;;14.68;7.95;;;18.30;99.90;;;;;;5020626;28;20060;-78
2022/09/06 01:18:21;;;;;;;14.77;8.52;;;18.30;99.90;;;;;;5038278;28;20029;-79
2022/09/06 01:21:02;;;;;;;11.95;8.43;;;18.30;99.90;;;;;;5038105;28;20021;-78
2022/09/06 01:23:49;;;;;;;13.35;8.68;;;18.30;99.90;;;;;;5038557;28;20112;-79
2022/09/06 01:26:39;;;;;;;15.50;9.05;;;18.30;99.90;;;;;;5038169;28;20402;-80
2022/09/06 01:29:21;;;;;;;12.40;8.18;;;18.30;99.90;;;;;;5035343;28;20089;-79
2022/09/06 01:32:31;;;;;;;17.83;8.50;;;18.30;99.90;;;;;;5035663;28;20018;-79
2022/09/06 01:35:07;;;;;;;14.32;8.05;;;18.20;99.90;;;;;;4946604;28;20054;-78
2022/09/06 01:37:33;;;;;;;11.98;8.55;;;18.20;99.90;;;;;;5038383;28;20085;-77
2022/09/06 01:39:58;;;;;;;10.98;8.23;;;18.20;99.90;;;;;;5021624;28;20021;-78
2022/09/06 01:42:29;;;;;;;13.10;8.15;;;18.10;99.90;;;;;;5042106;28;20586;-77
2022/09/06 01:45:04;;;;;;;12.20;9.05;;;18.10;99.90;;;;;;5046530;28;20034;-79
2022/09/06 01:47:48;;;;;;;12.38;9.05;;;18.00;99.90;;;;;;5044048;28;20030;-78
2022/09/06 01:50:47;;;;;;;12.95;8.32;;;17.90;99.90;;;;;;5028356;28;20053;-78
2022/09/06 01:53:38;;;;;;;11.10;8.57;;;17.80;99.90;;;;;;5044704;28;20041;-79
2022/09/06 01:56:42;;;;;;;16.00;9.15;;;17.80;99.90;;;;;;5036672;28;20049;-80
2022/09/06 01:59:26;;;;;;;13.57;8.95;;;17.80;99.90;;;;;;5046884;28;20032;-77
2022/09/06 02:02:14;;;;;;;10.93;8.25;;;17.90;99.90;;;;;;5025795;28;20022;-79
2022/09/06 02:04:52;;;;;;;11.25;8.43;;;17.90;99.90;;;;;;5048809;28;20084;-80
2022/09/06 02:07:29;;;;;;;12.00;8.45;;;17.90;99.90;;;;;;5044146;28;20030;-79
2022/09/06 02:10:16;;;;;;;13.77;8.77;;;17.90;99.90;;;;;;5043065;28;20025;-81
2022/09/06 02:12:47;;;;;;;12.88;7.60;;;17.80;99.90;;;;;;5024568;28;20037;-81
2022/09/06 02:15:20;;;;;;;11.48;8.98;;;17.80;99.90;;;;;;5042451;28;20041;-78
2022/09/06 02:17:52;;;;;;;10.07;7.90;;;17.80;99.90;;;;;;5059202;28;20034;-78
2022/09/06 02:20:29;;;;;;;13.30;9.18;;;17.70;99.90;;;;;;5031109;28;20060;-81
2022/09/06 02:22:59;;;;;;;13.00;8.48;;;17.80;99.90;;;;;;5039997;28;20033;-81
2022/09/06 02:25:44;;;;;;;11.63;8.05;;;17.80;99.90;;;;;;5050891;28;20029;-79
2022/09/06 02:28:10;;;;;;;10.60;8.00;;;17.80;99.90;;;;;;5053172;28;20030;-80
2022/09/06 02:30:41;;;;;;;13.23;7.97;;;17.80;99.90;;;;;;5034210;28;20094;-78
2022/09/06 02:33:15;;;;;;;13.13;8.23;;;17.70;99.90;;;;;;5004206;28;20037;-82
2022/09/06 02:35:46;;;;;;;12.65;8.45;;;17.70;99.90;;;;;;5120868;22;20086;-90
2022/09/06 02:38:14;;;;;;;11.88;7.75;;;17.60;99.90;;;;;;5035854;28;20033;-93
2022/09/06 02:40:41;;;;;;;10.95;7.70;;;17.60;99.90;;;;;;5042313;28;20014;-90
2022/09/06 02:43:08;;;;;;;15.70;9.18;;;17.70;99.90;;;;;;5038324;28;20029;-92
2022/09/06 02:45:37;;;;;;;13.63;8.30;;;17.70;99.90;;;;;;5056772;28;20029;-89
2022/09/06 02:48:04;;;;;;;13.15;8.32;;;17.60;99.90;;;;;;5040339;28;20151;-89
2022/09/06 02:50:30;;;;;;;12.52;8.13;;;17.50;99.90;;;;;;5051300;28;20218;-89
2022/09/06 02:53:10;;;;;;;13.48;8.20;;;17.50;99.90;;;;;;5053327;28;20071;-89
2022/09/06 02:55:38;;;;;;;13.02;9.05;;;17.50;99.90;;;;;;5094600;22;20037;-89
2022/09/06 02:58:05;;;;;;;15.02;8.93;;;17.40;99.90;;;;;;5021958;28;20033;-90
2022/09/06 03:00:32;;;;;;;13.32;8.57;;;17.40;99.90;;;;;;5013942;28;20049;-88
2022/09/06 03:02:58;;;;;;;15.32;9.02;;;17.30;99.90;;;;;;5048623;28;20025;-89
2022/09/06 03:05:26;;;;;;;11.82;8.70;;;17.30;99.90;;;;;;5008396;28;20084;-90
2022/09/06 03:07:53;;;;;;;12.50;8.40;;;17.20;99.90;;;;;;5023524;28;20026;-89
2022/09/06 03:10:20;;;;;;;16.52;8.95;;;17.30;99.90;;;;;;5017963;28;20034;-90
2022/09/06 03:12:46;;;;;;;17.63;8.07;;;17.30;99.90;;;;;;5018848;28;20025;-89
2022/09/06 03:15:14;;;;;;;13.35;8.48;;;17.40;99.90;;;;;;5003122;28;20034;-89
2022/09/06 03:17:42;;;;;;;12.77;8.70;;;17.30;99.90;;;;;;5020204;28;20116;-89
2022/09/06 03:20:10;;;;;;;11.98;8.82;;;17.30;99.90;;;;;;4996086;28;20038;-89
2022/09/06 03:22:38;;;;;;;13.15;8.07;;;17.30;99.90;;;;;;5012403;28;20037;-89
2022/09/06 03:25:08;;;;;;;11.20;9.10;;;17.30;99.90;;;;;;5027675;28;20030;-90
2022/09/06 03:27:35;;;;;;;14.88;8.50;;;17.20;99.90;;;;;;5001171;28;20026;-89
2022/09/06 03:30:01;;;;;;;13.57;8.73;;;17.20;99.90;;;;;;5125770;23;20051;-89
2022/09/06 03:32:27;;;;;;;16.30;8.63;;;17.30;99.90;;;;;;5099481;28;20008;-90
2022/09/06 03:34:53;;;;;;;13.85;8.15;;;17.30;99.90;;;;;;5062915;28;20044;-90
2022/09/06 03:37:20;;;;;;;19.42;9.02;;;17.30;99.90;;;;;;5045539;28;20023;-89
2022/09/06 03:39:46;;;;;;;13.80;9.43;;;17.20;99.90;;;;;;5061883;28;20024;-89
2022/09/06 03:42:12;;;;;;;15.88;9.05;;;17.20;99.90;;;;;;5061999;28;20021;-92
2022/09/06 03:44:38;;;;;;;12.38;8.55;;;17.10;99.90;;;;;;5078972;28;20035;-90
2022/09/06 03:47:04;;;;;;;12.80;9.18;;;17.10;99.90;;;;;;5079231;28;20005;-90
2022/09/06 03:49:30;;;;;;;12.55;8.90;;;17.00;99.90;;;;;;5078557;28;20091;-90
2022/09/06 03:51:56;;;;;;;14.57;8.60;;;17.10;99.90;;;;;;5060680;28;20029;-89
2022/09/06 03:54:23;;;;;;;18.55;9.38;;;17.00;99.90;;;;;;5060406;28;20049;-92
2022/09/06 03:56:51;;;;;;;14.52;9.38;;;17.00;99.90;;;;;;5061462;28;20047;-91
2022/09/06 03:59:17;;;;;;;11.52;8.98;;;17.00;99.90;;;;;;5044933;28;20009;-90
2022/09/06 04:01:43;;;;;;;12.00;8.18;;;16.90;99.90;;;;;;5060976;28;20013;-89
2022/09/06 04:04:09;;;;;;;13.30;9.50;;;16.90;99.90;;;;;;5061031;28;20017;-89
2022/09/06 04:06:35;;;;;;;13.95;8.27;;;16.90;99.90;;;;;;5060786;28;20105;-89
2022/09/06 04:09:06;;;;;;;12.93;8.57;;;17.00;99.90;;;;;;5191143;22;20064;-90
2022/09/06 04:11:38;;;;;;;14.90;9.10;;;17.00;99.90;;;;;;5061345;28;20080;-88
2022/09/06 04:14:04;;;;;;;22.77;9.38;;;17.00;99.90;;;;;;5075796;28;20045;-89
2022/09/06 04:16:30;;;;;;;14.05;9.07;;;17.10;99.90;;;;;;5069280;28;20127;-88
2022/09/06 04:18:58;;;;;;;20.60;9.57;;;17.20;99.90;;;;;;5068092;28;20093;-88
2022/09/06 04:21:24;;;;;;;12.75;8.65;;;17.40;99.90;;;;;;5052756;28;20385;-90
2022/09/06 04:23:50;;;;;;;14.65;8.27;;;17.60;99.90;;;;;;5072958;28;20040;-90
2022/09/06 04:26:19;;;;;;;19.20;8.98;;;17.80;99.90;;;;;;5075947;28;20020;-89
2022/09/06 04:28:51;;;;;;;12.73;7.45;;;17.90;99.90;;;;;;5052669;28;20421;-91
2022/09/06 04:31:17;;;;;;;16.80;8.48;;;17.90;99.90;;;;;;5058253;28;20077;-90
2022/09/06 04:33:43;;;;;;;16.63;8.07;;;18.00;99.90;;;;;;5040091;28;20029;-84
2022/09/06 04:36:11;;;;;;;13.50;8.05;;;18.10;99.90;;;;;;5052367;28;20084;-90
2022/09/06 04:38:39;;;;;;;13.85;8.32;;;18.30;99.90;;;;;;5053108;28;20102;-91
2022/09/06 04:41:06;;;;;;;11.82;8.35;;;18.30;99.90;;;;;;5036497;28;20029;-91
2022/09/06 04:43:33;;;;;;;11.77;8.13;;;18.40;99.90;;;;;;5036922;28;20025;-90
2022/09/06 04:46:05;;;;;;;13.30;8.52;;;18.40;99.90;;;;;;5034751;28;20032;-89
2022/09/06 04:48:32;;;;;;;18.90;8.25;;;18.50;99.90;;;;;;5185611;23;20145;-92
2022/09/06 04:50:58;;;;;;;13.80;8.82;;;18.50;99.90;;;;;;5059248;28;20033;-89
2022/09/06 04:53:24;;;;;;;11.07;7.57;;;18.60;99.90;;;;;;5065749;23;20037;-90
2022/09/06 04:55:50;;;;;;;11.68;7.90;;;18.50;99.90;;;;;;5031412;28;20040;-89
2022/09/06 04:58:17;;;;;;;13.77;7.93;;;18.50;99.90;;;;;;5039599;28;20108;-89
2022/09/06 05:00:45;;;;;;;12.45;7.93;;;18.50;99.90;;;;;;5053647;28;20036;-89
2022/09/06 05:03:11;;;;;;;12.52;8.10;;;18.50;99.90;;;;;;5053478;28;20020;-90
2022/09/06 05:13:48;;;;;;;13.95;8.10;;;18.50;99.90;;;;;;5474237;22;20084;-89
2022/09/06 05:16:18;;;;;;;14.52;8.00;;;18.50;99.90;;;;;;5002751;28;20049;-90
2022/09/06 05:18:50;;;;;;;;;;;18.50;99.90;;;;;;5003781;28;20076;-90
2022/09/06 05:21:18;;;;;;;12.90;8.10;;;18.50;99.90;;;;;;5019808;28;19941;-89
2022/09/06 05:23:49;;;;;;;11.90;7.85;;;18.40;99.90;;;;;;5194668;23;20045;-90
2022/09/06 05:28:51;;;;;;;14.70;8.63;;;18.40;99.90;;;;;;5919549;22;20033;-91
2022/09/06 05:31:29;;;;;;;17.92;7.80;;;18.50;99.90;;;;;;5197328;23;20124;-91
2022/09/06 05:36:40;;;;;;;17.98;7.85;;;18.70;99.90;;;;;;5035373;28;19997;-90
2022/09/06 05:39:07;;;;;;;12.45;8.27;;;18.80;99.90;;;;;;5007542;28;20086;-90
2022/09/06 05:41:36;;;;;;;13.23;8.35;;;18.90;99.90;;;;;;5479341;23;20037;-91
2022/09/06 05:44:06;;;;;;;8.65;6.70;;;19.00;99.90;;;;;;5063249;28;20028;-89
2022/09/06 05:46:32;;;;;;;13.40;7.88;;;19.10;99.90;;;;;;5043584;28;20030;-90
2022/09/06 05:49:06;;;;;;;12.80;7.45;;;19.20;99.90;;;;;;5286679;22;20084;-88
2022/09/06 05:51:33;;;;;;;13.20;6.63;;;19.30;99.90;;;;;;5024271;28;20041;-88
2022/09/06 05:54:01;;;;;;;12.65;7.47;;;19.40;99.90;;;;;;5024187;28;20026;-88
2022/09/06 05:56:27;;;;;;;13.20;7.20;;;19.50;99.90;;;;;;5012019;28;20025;-88
2022/09/06 06:01:55;;;;;;;14.82;8.57;;;19.60;99.90;;;;;;5131935;22;20033;-86
2022/09/06 06:05:06;;;;;;;16.80;8.60;;;19.50;99.90;;;;;;5036437;28;20048;-90
2022/09/06 06:07:58;;;;;;;13.65;7.82;;;19.50;99.90;;;;;;5002899;28;20101;-88
2022/09/06 06:10:25;;;;;;;19.08;8.45;;;19.50;99.90;;;;;;5048810;28;20033;-89
2022/09/06 06:12:51;;;;;;;13.13;8.35;;;19.40;99.90;;;;;;5034740;28;20038;-89
2022/09/06 06:15:18;;;;;;;12.93;8.35;;;19.40;99.90;;;;;;5043244;28;20045;-89
2022/09/06 06:17:44;;;;;;;13.88;8.32;;;19.40;99.90;;;;;;5027183;28;20010;-89
2022/09/06 06:20:11;;;;;;;12.77;7.95;;;19.50;99.90;;;;;;5043160;28;20029;-91
2022/09/06 06:22:38;;;;;;;14.13;7.53;;;19.60;99.90;;;;;;5026490;28;20024;-90
2022/09/06 06:25:04;;;;;;;15.20;8.23;;;19.80;99.90;;;;;;5037440;28;20028;-89
2022/09/06 06:27:32;;;;;;;16.45;7.97;;;19.90;99.90;;;;;;5079337;28;20013;-90
2022/09/06 06:29:59;;;;;;;10.93;7.47;;;20.00;99.90;;;;;;5045704;28;20037;-90
2022/09/06 06:32:25;;;;;;;14.25;8.23;;;20.10;99.90;;;;;;5045286;28;20077;-89
2022/09/06 06:34:52;;;;;;;15.90;7.35;;;20.20;99.90;;;;;;5075999;28;20071;-90
2022/09/06 06:37:18;;;;;;;13.27;8.25;;;20.20;99.90;;;;;;5038880;28;20029;-91
2022/09/06 06:39:45;;;;;;;11.85;8.45;;;20.30;99.90;;;;;;5057602;28;20466;-92
2022/09/06 06:42:11;;;;;;;13.95;7.78;;;20.40;99.90;;;;;;5061778;28;20043;-91
2022/09/06 06:44:47;;;;;;;11.65;6.55;;;20.40;99.90;;;;;;5061877;28;20021;-91
2022/09/06 06:47:19;;;;;;;13.73;6.80;;;20.50;99.90;;;;;;5061779;28;20017;-91
2022/09/06 06:49:48;;;;;;;14.88;7.53;;;20.60;99.90;;;;;;5044519;28;20056;-90
2022/09/06 06:52:14;;;;;;;19.00;8.27;;;20.80;99.90;;;;;;5114414;22;20053;-89
2022/09/06 06:54:43;;;;;;;10.82;6.97;;;20.90;99.90;;;;;;5038622;28;20115;-91
2022/09/06 06:57:11;;;;;;;11.82;7.03;;;20.90;99.90;;;;;;5005276;28;20021;-92
2022/09/06 06:59:38;;;;;;;14.02;8.10;;;20.90;99.90;;;;;;5037644;28;20150;-89
2022/09/06 07:02:05;;;;;;;10.30;7.05;;;21.00;99.90;;;;;;5025413;28;20018;-91
2022/09/06 07:04:31;;;;;;;17.02;7.05;;;21.10;99.90;;;;;;5041827;28;20105;-90
2022/09/06 07:06:57;;;;;;;12.73;7.13;;;21.00;99.90;;;;;;5040203;28;20060;-91
2022/09/06 07:09:24;;;;;;;10.48;6.88;;;21.10;99.90;;;;;;5040858;28;20040;-90
2022/09/06 07:11:50;;;;;;;11.43;6.80;;;21.10;99.90;;;;;;5024659;28;20014;-91
2022/09/06 07:14:17;;;;;;;16.17;6.97;;;21.20;99.90;;;;;;5018919;28;20037;-88
2022/09/06 07:16:43;;;;;;;12.23;7.10;;;21.20;99.90;;;;;;5050175;28;20041;-89
2022/09/06 07:19:09;;;;;;;10.15;5.80;;;21.30;99.90;;;;;;5035249;28;20025;-92
2022/09/06 07:21:36;;;;;;;12.52;7.18;;;21.30;99.90;;;;;;5041804;28;20024;-89
2022/09/06 07:24:04;;;;;;;11.55;6.82;;;21.20;99.90;;;;;;5058860;28;20540;-90
2022/09/06 07:26:30;;;;;;;16.45;6.25;;;21.30;99.90;;;;;;5057074;28;20026;-90
2022/09/06 07:29:01;;;;;;;13.60;7.20;;;21.60;99.90;;;;;;5039544;28;20022;-91
2022/09/06 07:31:28;;;;;;;8.45;6.22;;;21.70;99.90;;;;;;5037195;28;20049;-90
2022/09/06 07:33:54;;;;;;;12.15;7.05;;;21.80;99.90;;;;;;5016017;28;20046;-89
2022/09/06 07:36:20;;;;;;;11.30;6.68;;;21.70;99.90;;;;;;5024926;28;20042;-88
2022/09/06 07:38:49;;;;;;;11.98;6.30;;;21.80;99.90;;;;;;5009586;28;20018;-88
2022/09/06 07:41:17;;;;;;;11.90;7.35;;;21.70;99.90;;;;;;5019203;28;20034;-89
2022/09/06 07:43:43;;;;;;;11.60;5.55;;;21.70;99.90;;;;;;5005544;28;20094;-87
2022/09/06 07:46:11;;;;;;;10.75;7.40;;;21.80;99.90;;;;;;5038690;28;20030;-87
2022/09/06 07:48:39;;;;;;;11.35;5.88;;;21.90;99.90;;;;;;5033542;28;20081;-89
2022/09/06 07:51:11;;;;;;;11.07;6.45;;;22.00;99.90;;;;;;5041668;28;20040;-88
2022/09/06 07:53:39;;;;;;;16.20;5.65;;;22.20;99.90;;;;;;5025065;28;20022;-88
2022/09/06 07:56:07;;;;;;;10.55;6.50;;;22.20;99.90;;;;;;5025209;28;20014;-87
2022/09/06 07:58:35;;;;;;;10.25;6.05;;;22.40;99.90;;;;;;5041372;28;20017;-87
2022/09/06 08:01:19;;;;;;;16.75;6.97;;;22.50;99.90;;;;;;5041218;28;20025;-88
2022/09/06 08:03:46;;;;;;;10.02;6.53;;;22.40;99.90;;;;;;5041446;28;20021;-87
2022/09/06 08:06:14;;;;;;;13.95;6.07;;;22.30;99.90;;;;;;5024803;28;20017;-85
2022/09/06 08:08:42;;;;;;;12.45;6.18;;;22.30;99.90;;;;;;5058314;28;20037;-87
2022/09/06 08:11:09;;;;;;;12.70;6.40;;;22.40;99.90;;;;;;5041917;28;20014;-87
2022/09/06 08:13:46;;;;;;;12.75;7.22;;;22.40;99.90;;;;;;5041465;28;20021;-89
2022/09/06 08:16:14;;;;;;;12.60;7.35;;;22.50;99.90;;;;;;5058583;28;20022;-87
2022/09/06 08:18:40;;;;;;;11.82;8.50;;;22.50;99.90;;;;;;5041713;28;20009;-87
2022/09/06 08:21:11;;;;;;;11.93;8.07;;;22.40;99.90;;;;;;5058950;28;20073;-89
2022/09/06 08:23:43;;;;;;;12.82;8.15;;;22.20;99.90;;;;;;5039751;28;20053;-87
2022/09/06 08:26:09;;;;;;;13.02;7.60;;;22.30;99.90;;;;;;5005495;28;20069;-86
2022/09/06 08:28:35;;;;;;;13.20;9.93;;;22.40;99.90;;;;;;5020931;28;20033;-89
2022/09/06 08:31:15;;;;;;;12.43;7.72;;;22.40;99.90;;;;;;5020738;28;20054;-88
2022/09/06 08:33:47;;;;;;;11.07;7.72;;;22.50;99.90;;;;;;5002517;28;20040;-90
2022/09/06 08:36:14;;;;;;;16.50;8.15;;;22.60;99.90;;;;;;4994662;28;20096;-88
2022/09/06 08:38:40;;;;;;;12.18;8.68;;;22.70;99.90;;;;;;5011446;28;20108;-89
2022/09/06 08:41:37;;;;;;;12.35;8.90;;;22.70;99.90;;;;;;4996392;28;20046;-89
2022/09/06 08:44:08;;;;;;;13.43;8.15;;;22.80;99.90;;;;;;4995369;28;20038;-89
2022/09/06 08:47:07;;;;;;;11.20;8.65;;;22.80;99.90;;;;;;5011616;28;20065;-90
2022/09/06 08:49:37;;;;;;;11.88;8.52;;;22.80;99.90;;;;;;4993309;28;20034;-90
2022/09/06 08:52:23;;;;;;;10.80;8.85;;;22.90;99.90;;;;;;5015120;28;20506;-91
2022/09/06 08:55:03;;;;;;;12.35;7.25;;;22.80;99.90;;;;;;5017362;28;20033;-89
2022/09/06 08:57:46;;;;;;;16.02;8.45;;;22.80;99.90;;;;;;5018721;28;20037;-88
2022/09/06 09:00:18;;;;;;;9.30;7.20;;;22.80;99.90;;;;;;5015538;28;20081;-90
2022/09/06 09:02:47;;;;;;;10.55;7.65;;;22.90;99.90;;;;;;5003408;28;20032;-88
2022/09/06 09:05:24;;;;;;;10.63;8.35;;;23.00;99.90;;;;;;5037164;28;20058;-88
2022/09/06 09:07:58;;;;;;;16.88;8.90;;;23.10;99.90;;;;;;5004593;28;20028;-87
2022/09/06 09:10:44;;;;;;;11.10;8.93;;;23.40;99.90;;;;;;5014123;28;20037;-90
2022/09/06 09:13:16;;;;;;;;;;;23.70;99.90;;;;;;5011153;28;20041;-89
2022/09/06 09:15:42;;;;;;;11.73;7.70;;;24.00;99.90;;;;;;5010484;28;19917;-90
2022/09/06 09:18:08;;;;;;;12.27;6.97;;;24.40;99.90;;;;;;4995878;28;20116;-89
2022/09/06 09:20:37;;;;;;;10.85;8.30;;;25.10;99.90;;;;;;5020596;28;20121;-87
2022/09/06 09:23:05;;;;;;;11.93;7.75;;;25.60;99.90;;;;;;5020659;28;20102;-88
2022/09/06 09:25:33;;;;;;;10.27;6.97;;;26.40;99.90;;;;;;5020557;28;20021;-89
2022/09/06 09:28:02;;;;;;;7.60;6.50;;;26.70;99.90;;;;;;5020106;28;20022;-89
2022/09/06 09:30:50;;;;;;;8.30;6.50;;;27.10;99.90;;;;;;5004164;28;20022;-89
2022/09/06 09:33:32;;;;;;;11.23;6.78;;;28.00;99.80;;;;;;5017205;28;20027;-89
2022/09/06 09:36:01;;;;;;;11.00;6.85;;;28.70;98.50;;;;;;5004181;28;20061;-88
2022/09/06 09:38:43;;;;;;;12.27;6.38;;;29.40;97.50;;;;;;5020105;28;20049;-88
2022/09/06 09:41:34;;;;;;;10.80;6.60;;;29.80;95.90;;;;;;5020283;28;20018;-87
2022/09/06 09:44:16;;;;;;;15.68;8.80;;;30.90;94.40;;;;;;5036094;28;20042;-89
2022/09/06 09:46:42;;;;;;;7.25;6.03;;;31.50;92.50;;;;;;5036294;28;20029;-89
2022/09/06 09:49:28;;;;;;;15.43;7.40;;;32.70;90.80;;;;;;5018886;28;20038;-88
2022/09/06 09:52:05;;;;;;;8.32;6.15;;;32.70;90.10;;;;;;5035031;28;20097;-88
2022/09/06 09:54:35;;;;;;;13.15;7.82;;;33.50;87.20;;;;;;5032267;28;20082;-89
2022/09/06 09:57:05;;;;;;;8.13;6.47;;;32.80;87.00;;;;;;5015995;28;20049;-90
2022/09/06 10:00:00;;;;;;;10.50;6.28;;;32.40;87.40;;;;;;5034981;28;20495;-89
2022/09/06 10:02:27;;;;;;;8.52;6.30;;;33.20;86.00;;;;;;5002169;28;20061;-89
2022/09/06 10:05:01;;;;;;;11.60;5.72;;;33.70;83.80;;;;;;5020013;28;20171;-88
2022/09/06 10:07:34;;;;;;;11.07;6.70;;;33.40;83.50;;;;;;5036685;28;20040;-90
2022/09/06 10:10:04;;;;;;;13.35;9.15;;;34.10;81.90;;;;;;5035534;28;20025;-90
2022/09/06 10:12:35;;;;;;;13.40;6.90;;;33.80;81.30;;;;;;5034357;28;20041;-89
2022/09/06 10:15:02;;;;;;;9.95;7.05;;;35.10;80.10;;;;;;4999073;28;20033;-89
2022/09/06 10:17:31;;;;;;;8.15;5.63;;;36.20;77.70;;;;;;5013744;28;20018;-90
2022/09/06 10:20:18;;;;;;;7.40;5.70;;;37.20;74.70;;;;;;4998994;28;20089;-90
2022/09/06 10:23:37;;;;;;;8.93;5.45;;;38.60;71.30;;;;;;5030092;28;20045;-89
2022/09/06 10:26:34;;;;;;;13.23;6.28;;;37.60;70.40;;;;;;4918556;29;20052;-90
2022/09/06 10:29:04;;;;;;;9.80;6.63;;;35.50;72.60;;;;;;4936811;29;20064;-90
2022/09/06 10:31:42;;;;;;;7.80;5.88;;;34.60;73.70;;;;;;4991990;28;20050;-90
2022/09/06 10:34:25;;;;;;;9.25;6.13;;;34.40;73.90;;;;;;5036079;28;20033;-88
2022/09/06 10:37:00;;;;;;;11.70;6.50;;;34.90;73.80;;;;;;5063610;23;20367;-84
2022/09/06 10:39:44;;;;;;;8.20;5.50;;;36.80;71.50;;;;;;5058091;28;20044;-82
2022/09/06 10:42:18;;;;;;;9.40;6.28;;;37.90;68.90;;;;;;5067899;28;20059;-83
2022/09/06 10:45:02;;;;;;;7.97;5.70;;;38.40;67.60;;;;;;5101899;28;20031;-82
2022/09/06 10:47:46;;;;;;;8.73;5.78;;;39.00;66.90;;;;;;5082644;28;20039;-81
2022/09/06 10:50:12;;;;;;;;;;;40.00;64.80;;;;;;5101932;28;20021;-83
2022/09/06 10:52:42;;;;;;;10.27;5.68;;;39.70;64.10;;;;;;5097711;28;20364;-81
2022/09/06 10:55:12;;;;;;;8.18;6.13;;;39.50;63.70;;;;;;5071262;28;20143;-84
2022/09/06 10:57:45;;;;;;;11.13;7.15;;;39.80;63.30;;;;;;5092890;28;20065;-82
2022/09/06 11:00:13;;;;;;;10.73;5.60;;;39.40;63.20;;;;;;5076591;28;20044;-87
2022/09/06 11:02:57;;;;;;;8.32;5.53;;;38.70;64.10;;;;;;5109270;28;20020;-86
2022/09/06 11:05:46;;;;;;;10.52;5.93;;;39.00;63.30;;;;;;5079195;28;20032;-87
2022/09/06 11:08:40;;;;;;;7.32;5.85;;;39.40;63.00;;;;;;5097773;28;20024;-86
2022/09/06 11:11:09;;;;;;;;;;;39.50;62.30;;;;;;5106090;28;20024;-85
2022/09/06 11:13:34;;;;;;;9.65;5.70;;;40.00;61.60;;;;;;5086535;28;19911;-87
2022/09/06 11:16:16;;;;;;;11.95;6.43;;;40.60;60.90;;;;;;5074391;28;20028;-88
2022/09/06 11:18:53;;;;;;;9.00;5.65;;;41.10;59.80;;;;;;5054086;28;20052;-84
2022/09/06 11:21:59;;;;;;;10.82;5.57;;;41.70;59.20;;;;;;5065904;28;20438;-84
2022/09/06 11:24:28;;;;;;;9.23;6.25;;;42.40;58.10;;;;;;5088537;28;20079;-82
2022/09/06 11:27:11;;;;;;;11.68;5.85;;;41.70;57.70;;;;;;5067400;28;20032;-84
2022/09/06 11:29:42;;;;;;;7.95;5.63;;;41.00;58.60;;;;;;5061662;28;20040;-84
2022/09/06 11:32:39;;;;;;;8.38;5.65;;;41.80;58.30;;;;;;5027225;28;20068;-84
2022/09/06 11:35:21;;;;;;;8.68;6.13;;;41.80;57.20;;;;;;5055243;28;20044;-85
2022/09/06 11:37:56;;;;;;;6.15;4.90;;;41.60;57.20;;;;;;5066165;28;20037;-83
2022/09/06 11:40:26;;;;;;;6.28;5.68;;;42.00;57.20;;;;;;5094855;28;20058;-83
2022/09/06 11:42:51;;;;;;;8.23;5.53;;;42.30;56.40;;;;;;5075399;28;20032;-84
2022/09/06 11:45:39;;;;;;;9.45;5.80;;;42.60;55.90;;;;;;5073219;28;20035;-83
2022/09/06 11:48:32;;;;;;;8.50;6.95;;;42.40;55.90;;;;;;5080086;28;20025;-85
2022/09/06 11:50:58;;;;;;;9.63;6.30;;;43.10;54.50;;;;;;5091955;28;20024;-82
2022/09/06 11:53:33;;;;;;;9.10;6.03;;;43.30;54.40;;;;;;5102079;28;20059;-83
2022/09/06 11:55:59;;;;;;;9.57;6.47;;;43.30;54.00;;;;;;5096870;28;20028;-83
2022/09/06 11:58:30;;;;;;;7.22;5.80;;;43.60;53.50;;;;;;5089210;28;20025;-83
2022/09/06 12:01:11;;;;;;;6.55;5.70;;;43.30;53.30;;;;;;5089784;28;20033;-83
2022/09/06 12:03:45;;;;;;;10.45;5.40;;;42.80;53.70;;;;;;5088140;28;20028;-84
2022/09/06 12:06:18;;;;;;;6.95;5.45;;;42.80;53.90;;;;;;5087556;28;20024;-84
2022/09/06 12:08:51;;;;;;;11.55;6.30;;;42.90;53.80;;;;;;5082907;28;20020;-86
2022/09/06 12:11:43;;;;;;;6.53;5.27;;;42.40;53.80;;;;;;5065141;28;20035;-83
2022/09/06 12:14:31;;;;;;;7.57;4.90;;;41.90;54.30;;;;;;5066506;28;20283;-81
2022/09/06 12:16:57;;;;;;;7.13;5.32;;;41.40;54.30;;;;;;5083680;28;20032;-84
2022/09/06 12:19:47;;;;;;;7.00;5.55;;;41.20;54.60;;;;;;5082069;28;20024;-84
2022/09/06 12:22:25;;;;;;;10.05;5.45;;;40.20;55.30;;;;;;5080199;28;20032;-84
2022/09/06 12:25:30;;;;;;;8.27;6.07;;;39.90;55.90;;;;;;5079743;28;20069;-85
2022/09/06 12:27:58;;;;;;;8.02;5.50;;;40.10;55.50;;;;;;5050123;28;20108;-85
2022/09/06 12:30:37;;;;;;;12.10;5.20;;;39.90;55.60;;;;;;5084526;28;20084;-84
2022/09/06 12:33:15;;;;;;;8.02;5.80;;;39.80;55.80;;;;;;5088001;28;20052;-86
2022/09/06 12:35:41;;;;;;;6.72;4.97;;;39.10;56.10;;;;;;5083064;28;20036;-84
2022/09/06 12:38:12;;;;;;;11.70;5.63;;;39.20;56.20;;;;;;5083276;28;20052;-84
2022/09/06 12:40:44;;;;;;;9.60;5.63;;;38.80;56.80;;;;;;5063104;28;20032;-83
2022/09/06 12:43:13;;;;;;;9.77;7.03;;;38.70;56.90;;;;;;5074776;28;20054;-83
2022/09/06 12:45:43;;;;;;;8.60;5.22;;;37.80;57.60;;;;;;5081869;28;20389;-84
2022/09/06 12:48:12;;;;;;;8.43;5.55;;;37.30;58.20;;;;;;5073296;28;20023;-84
2022/09/06 12:50:39;;;;;;;8.10;5.43;;;37.40;58.40;;;;;;5090011;28;20032;-85
2022/09/06 12:53:23;;;;;;;10.20;5.63;;;37.80;58.20;;;;;;5083713;28;20098;-83
2022/09/06 12:56:08;;;;;;;10.70;5.25;;;38.20;57.90;;;;;;5066108;28;20502;-86
2022/09/06 12:58:35;;;;;;;9.40;5.78;;;38.80;57.40;;;;;;5092935;28;20032;-83
2022/09/06 13:01:19;;;;;;;9.13;5.68;;;38.60;57.30;;;;;;5094444;28;20416;-82
2022/09/06 13:04:10;;;;;;;8.27;5.50;;;38.90;57.20;;;;;;5077007;28;20020;-82
2022/09/06 13:06:42;;;;;;;11.48;5.50;;;38.50;57.30;;;;;;5095750;28;20044;-83
2022/09/06 13:09:12;;;;;;;9.30;5.15;;;38.40;57.30;;;;;;5078454;28;20025;-82
2022/09/06 13:11:42;;;;;;;7.47;5.22;;;38.50;57.10;;;;;;5096069;28;20036;-83
2022/09/06 13:14:11;;;;;;;10.32;5.72;;;37.50;57.80;;;;;;5095774;28;20048;-84
2022/09/06 13:16:43;;;;;;;6.95;5.00;;;36.40;59.20;;;;;;5093977;28;20013;-82
2022/09/06 13:19:28;;;;;;;9.27;5.50;;;36.90;58.70;;;;;;5094586;28;20033;-83
2022/09/06 13:21:54;;;;;;;9.88;5.78;;;36.80;58.80;;;;;;5075958;28;20082;-84
2022/09/06 13:24:35;;;;;;;15.77;5.72;;;36.50;59.60;;;;;;5089695;28;20035;-84